createdAt,value
2022-12-13T00:01:13.207Z,25.37
2022-12-13T00:06:16.591Z,23.23
2022-12-13T00:11:18.537Z,24.67
2022-12-13T00:16:22.714Z,23.70
2022-12-13T00:21:27.106Z,23.90
2022-12-13T00:26:29.899Z,24.40
2022-12-13T00:36:55.419Z,24.97
2022-12-13T00:41:57.306Z,24.97
2022-12-13T00:46:59.739Z,23.97
2022-12-13T00:52:03.022Z,22.33
2022-12-13T00:57:05.012Z,25.00
2022-12-13T01:02:06.821Z,26.47
2022-12-13T01:07:09.975Z,24.43
2022-12-13T01:12:11.907Z,26.17
2022-12-13T01:17:13.815Z,26.20
2022-12-13T01:22:17.044Z,27.43
2022-12-13T01:27:18.980Z,26.83
2022-12-13T01:32:20.762Z,25.80
2022-12-13T01:37:26.009Z,25.80
2022-12-13T01:42:28.137Z,26.83
2022-12-13T01:47:31.948Z,28.10
2022-12-13T01:52:35.157Z,27.00
2022-12-13T01:57:40.762Z,26.27
2022-12-13T02:02:45.699Z,25.20
2022-12-13T02:07:48.899Z,26.40
2022-12-13T02:12:50.732Z,26.30
2022-12-13T02:17:58.327Z,25.13
2022-12-13T02:23:12.979Z,24.97
2022-12-13T02:28:31.312Z,25.30
2022-12-13T02:33:40.251Z,26.40
2022-12-13T02:38:46.134Z,24.10
2022-12-13T02:43:49.284Z,25.47
2022-12-13T02:48:53.066Z,25.30
2022-12-13T02:53:54.925Z,25.03
2022-12-13T02:58:56.780Z,24.47
2022-12-13T03:04:05.603Z,25.47
2022-12-13T03:09:17.993Z,25.40
2022-12-13T03:14:20.075Z,26.80
2022-12-13T03:19:23.197Z,27.07
2022-12-13T03:24:24.979Z,26.83
2022-12-13T03:29:26.816Z,27.10
2022-12-13T03:34:44.910Z,27.30
2022-12-13T03:39:47.994Z,26.00
2022-12-13T03:44:49.865Z,26.90
2022-12-13T03:49:54.362Z,27.43
2022-12-13T03:54:56.483Z,26.50
2022-12-13T03:59:58.385Z,25.73
2022-12-13T04:05:01.667Z,25.70
2022-12-13T04:10:03.751Z,24.83
2022-12-13T04:15:25.784Z,25.40
2022-12-13T04:20:29.013Z,23.53
2022-12-13T04:25:30.998Z,26.10
2022-12-13T04:30:32.985Z,26.57
2022-12-13T04:35:36.098Z,26.03
2022-12-13T04:40:37.980Z,26.50
2022-12-13T04:45:39.792Z,26.00
2022-12-13T04:50:42.986Z,26.97
2022-12-13T04:55:44.812Z,25.97
2022-12-13T05:00:46.640Z,24.63
2022-12-13T05:05:49.765Z,24.83
2022-12-13T05:10:51.589Z,24.53
2022-12-13T05:15:56.640Z,29.00
2022-12-13T05:21:03.081Z,26.70
2022-12-13T05:26:05.051Z,25.10
2022-12-13T05:31:23.048Z,26.03
2022-12-13T05:36:27.121Z,25.80
2022-12-13T05:41:29.526Z,24.83
2022-12-13T05:46:31.613Z,24.63
2022-12-13T05:51:36.623Z,25.67
2022-12-13T05:56:38.379Z,25.40
2022-12-13T06:01:43.607Z,25.13
2022-12-13T06:06:47.259Z,25.70
2022-12-13T06:12:00.903Z,25.70
2022-12-13T06:17:03.325Z,25.27
2022-12-13T06:22:06.502Z,24.23
2022-12-13T06:27:08.252Z,26.27
2022-12-13T06:32:10.479Z,26.07
2022-12-13T06:37:13.822Z,28.83
2022-12-13T06:42:21.767Z,25.20
2022-12-13T06:47:31.937Z,26.13
2022-12-13T06:52:35.726Z,25.40
2022-12-13T06:57:37.508Z,25.70
2022-12-13T07:02:42.791Z,26.97
2022-12-13T07:07:46.101Z,26.70
2022-12-13T07:12:47.983Z,25.77
2022-12-13T07:17:50.367Z,26.50
2022-12-13T07:22:58.858Z,27.37
2022-12-13T07:28:02.898Z,27.30
2022-12-13T07:33:05.238Z,24.67
2022-12-13T07:38:08.459Z,25.23
2022-12-13T07:43:11.836Z,25.30
2022-12-13T07:48:13.617Z,24.70
2022-12-13T07:53:17.010Z,24.90
2022-12-13T07:58:18.902Z,33.43
2022-12-13T08:03:25.559Z,28.60
2022-12-13T08:08:30.973Z,27.37
2022-12-13T08:13:33.833Z,28.13
2022-12-13T08:18:35.999Z,32.23
2022-12-13T08:23:39.086Z,32.13
2022-12-13T08:28:40.806Z,27.23
2022-12-13T08:33:45.533Z,28.20
2022-12-13T08:38:48.648Z,26.80
2022-12-13T08:43:50.787Z,22.90
2022-12-13T08:48:53.231Z,22.10
2022-12-13T08:54:10.668Z,19.37
2022-12-13T08:59:13.225Z,17.57
2022-12-13T09:04:18.026Z,20.20
2022-12-13T09:09:34.963Z,23.63
2022-12-13T09:14:45.053Z,20.97
2022-12-13T09:19:47.281Z,22.03
2022-12-13T09:24:50.465Z,24.27
2022-12-13T09:29:52.199Z,28.40
2022-12-13T09:34:54.024Z,26.70
2022-12-13T09:39:57.250Z,28.90
2022-12-13T09:45:03.236Z,26.97
2022-12-13T09:50:06.446Z,27.30
2022-12-13T09:55:18.959Z,25.13
2022-12-13T10:00:21.817Z,23.00
2022-12-13T10:05:34.287Z,22.37
2022-12-13T10:10:42.215Z,20.07
2022-12-13T10:15:47.427Z,18.90
2022-12-13T10:20:49.171Z,18.60
2022-12-13T10:25:55.022Z,18.67
2022-12-13T10:31:05.604Z,17.03
2022-12-13T10:36:09.614Z,15.57
2022-12-13T10:41:27.566Z,14.73
2022-12-13T10:46:31.115Z,14.00
2022-12-13T10:51:40.265Z,14.10
2022-12-13T10:56:45.632Z,12.90
2022-12-13T11:01:47.403Z,13.57
2022-12-13T11:06:49.180Z,13.00
2022-12-13T11:11:59.059Z,13.53
2022-12-13T11:17:06.492Z,13.57
2022-12-13T11:22:08.762Z,13.53
2022-12-13T11:27:24.408Z,13.03
2022-12-13T11:32:33.338Z,14.27
2022-12-13T11:37:39.177Z,13.40
2022-12-13T11:42:44.040Z,13.50
2022-12-13T11:47:49.983Z,14.73
2022-12-13T11:53:01.671Z,14.83
2022-12-13T11:58:07.299Z,13.83
2022-12-13T12:03:17.747Z,23.87
2022-12-13T12:08:32.415Z,26.80
2022-12-13T12:13:50.800Z,56.50
2022-12-13T12:19:01.518Z,21.23
2022-12-13T12:24:15.932Z,14.67
2022-12-13T12:29:50.649Z,13.97
2022-12-13T12:34:55.937Z,13.10
2022-12-13T12:40:15.374Z,13.33
2022-12-13T12:45:55.212Z,12.47
2022-12-13T12:50:50.865Z,15.60
2022-12-13T12:56:00.826Z,13.40
2022-12-13T13:01:13.238Z,13.23
2022-12-13T13:06:16.692Z,13.70
2022-12-13T13:11:24.362Z,13.40
2022-12-13T13:16:34.295Z,13.27
2022-12-13T13:21:46.344Z,19.90
2022-12-13T13:26:49.693Z,17.40
2022-12-13T13:32:01.135Z,17.07
2022-12-13T13:37:27.247Z,23.67
2022-12-13T13:42:29.381Z,15.30
2022-12-13T13:47:38.970Z,14.30
2022-12-13T13:52:45.987Z,15.23
2022-12-13T13:58:29.959Z,13.93
2022-12-13T14:03:58.032Z,15.70
2022-12-13T14:09:21.854Z,17.37
2022-12-13T14:14:51.536Z,23.83
2022-12-13T14:20:23.544Z,17.80
2022-12-13T14:25:42.273Z,17.20
2022-12-13T14:30:48.312Z,16.97
2022-12-13T14:36:01.710Z,20.00
2022-12-13T14:41:03.682Z,17.33
2022-12-13T14:46:06.475Z,18.27
2022-12-13T14:51:29.661Z,19.60
2022-12-13T14:56:31.410Z,19.63
2022-12-13T15:01:34.157Z,19.80
2022-12-13T15:06:37.243Z,21.10
2022-12-13T15:11:39.134Z,19.70
2022-12-13T15:16:41.065Z,18.20
2022-12-13T15:21:58.618Z,21.70
